createdAt,value
2018-09-25T00:02:26.634Z,99437.57
2018-09-25T00:05:01.481Z,99431.78
2018-09-25T00:07:36.276Z,99428.20
2018-09-25T00:10:11.440Z,99437.37
2018-09-25T00:12:46.231Z,99439.22
2018-09-25T00:15:20.897Z,99443.55
2018-09-25T00:17:56.222Z,99441.82
2018-09-25T00:20:31.251Z,99447.61
2018-09-25T00:23:06.309Z,99444.17
2018-09-25T00:25:40.985Z,99446.15
2018-09-25T00:28:15.739Z,99451.23
2018-09-25T00:30:52.224Z,99448.78
2018-09-25T00:33:27.357Z,99444.22
2018-09-25T00:36:02.873Z,99444.84
2018-09-25T00:38:37.398Z,99449.41
2018-09-25T00:41:12.106Z,99443.61
2018-09-25T00:43:47.059Z,99443.73
2018-09-25T00:46:22.101Z,99445.95
2018-09-25T00:48:56.749Z,99451.51
2018-09-25T00:51:31.671Z,99448.95
2018-09-25T00:54:06.321Z,99449.45
2018-09-25T00:56:40.953Z,99450.94
2018-09-25T00:59:15.485Z,99459.56
2018-09-25T01:01:50.374Z,99455.26
2018-09-25T01:04:25.282Z,99450.95
2018-09-25T01:06:59.959Z,99452.83
2018-09-25T01:09:35.146Z,99457.73
2018-09-25T01:12:09.817Z,99464.17
2018-09-25T01:14:44.543Z,99468.00
2018-09-25T01:17:19.998Z,99458.51
2018-09-25T01:19:55.125Z,99463.56
2018-09-25T01:22:30.355Z,99471.70
2018-09-25T01:25:05.245Z,99470.97
2018-09-25T01:27:40.235Z,99470.75
2018-09-25T01:30:15.331Z,99475.31
2018-09-25T01:32:49.922Z,99471.38
2018-09-25T01:35:24.882Z,99477.66
2018-09-25T01:37:59.465Z,99469.28
2018-09-25T01:40:34.437Z,99477.54
2018-09-25T01:43:09.758Z,99476.19
2018-09-25T01:45:44.518Z,99477.17
2018-09-25T01:48:19.462Z,99475.82
2018-09-25T01:50:54.158Z,99476.44
2018-09-25T01:53:28.966Z,99474.25
2018-09-25T01:56:03.656Z,99478.94
2018-09-25T01:58:38.902Z,99482.52
2018-09-25T02:01:13.466Z,99484.36
2018-09-25T02:03:48.390Z,99485.34
2018-09-25T02:06:23.493Z,99491.88
2018-09-25T02:08:58.442Z,99487.32
2018-09-25T02:11:33.126Z,99491.88
2018-09-25T02:14:07.615Z,99484.12
2018-09-25T02:16:42.430Z,99486.09
2018-09-25T02:19:17.074Z,99489.42
2018-09-25T02:21:52.255Z,99485.34
2018-09-25T02:24:26.881Z,99492.13
2018-09-25T02:27:03.044Z,99486.12
2018-09-25T02:29:38.338Z,99483.29
2018-09-25T02:32:13.979Z,99490.69
2018-09-25T02:34:48.609Z,99484.77
2018-09-25T02:37:24.579Z,99491.67
2018-09-25T02:39:59.187Z,99493.52
2018-09-25T02:42:33.997Z,99491.92
2018-09-25T02:45:09.512Z,99485.63
2018-09-25T02:47:44.970Z,99489.85
2018-09-25T02:50:21.509Z,99484.44
2018-09-25T02:52:56.221Z,99497.13
2018-09-25T02:55:32.156Z,99496.75
2018-09-25T02:58:08.245Z,99496.38
2018-09-25T03:00:43.021Z,99491.83
2018-09-25T03:03:17.707Z,99492.32
2018-09-25T03:05:52.662Z,99488.38
2018-09-25T03:08:28.215Z,99482.58
2018-09-25T03:11:03.229Z,99476.91
2018-09-25T03:13:37.900Z,99479.50
2018-09-25T03:16:13.285Z,99479.02
2018-09-25T03:18:49.447Z,99480.49
2018-09-25T03:21:23.977Z,99484.71
2018-09-25T03:23:58.912Z,99482.00
2018-09-25T03:26:35.230Z,99479.91
2018-09-25T03:29:11.216Z,99481.88
2018-09-25T03:31:46.285Z,99487.17
2018-09-25T03:34:21.646Z,99487.79
2018-09-25T03:36:56.508Z,99484.34
2018-09-25T03:39:31.264Z,99479.41
2018-09-25T03:42:06.798Z,99482.13
2018-09-25T03:44:42.891Z,99490.25
2018-09-25T03:47:18.172Z,99488.19
2018-09-25T03:49:52.842Z,99485.33
2018-09-25T03:52:27.634Z,99484.13
2018-09-25T03:55:02.206Z,99478.83
2018-09-25T03:57:37.070Z,99479.31
2018-09-25T04:00:13.945Z,99482.52
2018-09-25T04:02:48.618Z,99484.86
2018-09-25T04:05:23.717Z,99485.56
2018-09-25T04:07:59.770Z,99485.44
2018-09-25T04:10:34.261Z,99481.38
2018-09-25T04:13:10.630Z,99483.34
2018-09-25T04:15:46.668Z,99482.64
2018-09-25T04:18:21.542Z,99486.45
2018-09-25T04:21:00.476Z,99488.80
2018-09-25T04:23:37.767Z,99485.59
2018-09-25T04:26:14.023Z,99488.55
2018-09-25T04:28:48.826Z,99486.81
2018-09-25T04:31:23.892Z,99492.39
2018-09-25T04:33:58.887Z,99494.84
2018-09-25T04:36:33.736Z,99490.91
2018-09-25T04:39:09.007Z,99492.51
2018-09-25T04:41:43.999Z,99492.51
2018-09-25T04:44:19.529Z,99504.42
2018-09-25T04:49:28.277Z,99502.23
2018-09-25T04:52:02.986Z,99501.25
2018-09-25T04:54:37.978Z,99510.07
2018-09-25T04:57:14.613Z,99505.02
2018-09-25T04:59:49.363Z,99504.57
2018-09-25T05:02:25.403Z,99511.07
2018-09-25T05:05:00.678Z,99507.02
2018-09-25T05:07:45.244Z,99515.73
2018-09-25T05:10:25.772Z,99518.04
2018-09-25T05:13:03.207Z,99515.33
2018-09-25T05:15:38.041Z,99512.98
2018-09-25T05:18:13.537Z,99513.08
2018-09-25T05:20:49.719Z,99519.82
2018-09-25T05:23:24.239Z,99516.28
2018-09-25T05:26:00.277Z,99520.93
2018-09-25T05:28:35.466Z,99512.27
2018-09-25T05:31:10.973Z,99522.50
2018-09-25T05:33:45.633Z,99521.76
2018-09-25T05:36:21.683Z,99527.05
2018-09-25T05:38:56.580Z,99529.85
2018-09-25T05:41:31.493Z,99529.35
2018-09-25T05:44:06.396Z,99527.75
2018-09-25T05:46:40.848Z,99526.48
2018-09-25T05:49:17.303Z,99535.60
2018-09-25T05:51:53.114Z,99538.19
2018-09-25T05:54:29.619Z,99535.06
2018-09-25T05:57:04.385Z,99536.05
2018-09-25T05:59:39.704Z,99536.13
2018-09-25T06:02:17.878Z,99534.77
2018-09-25T06:04:53.874Z,99540.80
2018-09-25T06:07:30.255Z,99548.08
2018-09-25T06:10:07.830Z,99544.73
2018-09-25T06:12:45.987Z,99541.66
2018-09-25T06:15:20.868Z,99545.41
2018-09-25T06:17:55.433Z,99548.58
2018-09-25T06:20:30.875Z,99544.55
2018-09-25T06:23:06.832Z,99544.19
2018-09-25T06:25:48.232Z,99538.21
2018-09-25T06:28:24.296Z,99540.54
2018-09-25T06:30:59.018Z,99545.23
2018-09-25T06:33:34.731Z,99544.81
2018-09-25T06:36:09.447Z,99542.96
2018-09-25T06:38:45.276Z,99549.86
2018-09-25T06:41:22.211Z,99554.30
2018-09-25T06:43:57.172Z,99549.73
2018-09-25T06:46:32.012Z,99557.09
2018-09-25T06:49:07.902Z,99551.17
2018-09-25T06:51:42.436Z,99560.91
2018-09-25T06:54:17.567Z,99558.56
2018-09-25T06:56:52.545Z,99564.23
2018-09-25T06:59:27.047Z,99562.58
2018-09-25T07:02:02.187Z,99568.52
2018-09-25T07:04:37.978Z,99571.34
2018-09-25T07:07:14.666Z,99575.28
2018-09-25T07:09:49.818Z,99586.14
2018-09-25T07:12:25.693Z,99588.73
2018-09-25T07:15:02.314Z,99590.41
2018-09-25T07:17:37.246Z,99594.24
2018-09-25T07:20:13.406Z,99598.92
2018-09-25T07:22:49.306Z,99594.92
2018-09-25T07:25:25.220Z,99592.75
2018-09-25T07:28:00.182Z,99600.90
2018-09-25T07:30:35.699Z,99600.90
2018-09-25T07:33:10.241Z,99600.52
2018-09-25T07:35:44.901Z,99603.09
2018-09-25T07:38:21.549Z,99608.23
2018-09-25T07:40:58.380Z,99606.98
2018-09-25T07:43:33.031Z,99612.05
2018-09-25T07:46:08.707Z,99617.36
2018-09-25T07:48:44.601Z,99616.77
2018-09-25T07:51:19.237Z,99620.84
2018-09-25T07:53:54.709Z,99625.86
2018-09-25T07:56:29.902Z,99618.80
2018-09-25T07:59:05.171Z,99623.18
2018-09-25T08:01:40.521Z,99622.19
2018-09-25T08:04:15.182Z,99622.42
2018-09-25T08:06:50.019Z,99623.91
2018-09-25T08:09:25.252Z,99631.23
2018-09-25T08:12:01.258Z,99639.12
2018-09-25T08:14:39.094Z,99643.20
2018-09-25T08:17:14.598Z,99641.48
2018-09-25T08:19:49.166Z,99649.50
2018-09-25T08:22:23.795Z,99650.36
2018-09-25T08:25:01.079Z,99658.52
2018-09-25T08:27:36.851Z,99663.96
2018-09-25T08:30:12.424Z,99666.18
2018-09-25T08:32:48.373Z,99673.34
2018-09-25T08:35:23.480Z,99672.84
2018-09-25T08:37:58.208Z,99673.22
2018-09-25T08:40:34.715Z,99670.86
2018-09-25T08:43:10.206Z,99672.92
2018-09-25T08:45:45.061Z,99678.36
2018-09-25T08:48:23.042Z,99681.81
2018-09-25T08:50:58.096Z,99673.66
2018-09-25T08:53:32.810Z,99677.59
2018-09-25T08:56:08.991Z,99676.23
2018-09-25T08:58:46.479Z,99671.04
2018-09-25T09:01:22.101Z,99670.67
2018-09-25T09:03:57.166Z,99676.48
2018-09-25T09:06:32.224Z,99675.19
2018-09-25T09:09:07.434Z,99687.59
2018-09-25T09:11:43.232Z,99687.14
2018-09-25T09:14:19.767Z,99697.69
2018-09-25T09:16:55.087Z,99694.94
2018-09-25T09:19:29.799Z,99698.09
2018-09-25T09:22:05.080Z,99690.52
2018-09-25T09:24:40.186Z,99697.52
2018-09-25T09:27:15.095Z,99695.40
2018-09-25T09:29:50.393Z,99691.68
2018-09-25T09:32:25.916Z,99695.20
2018-09-25T09:35:02.715Z,99693.46
2018-09-25T09:37:38.248Z,99693.16
2018-09-25T09:40:13.162Z,99686.45
2018-09-25T09:42:49.266Z,99685.18
2018-09-25T09:51:19.205Z,99681.42
2018-09-25T09:53:53.770Z,99684.81
2018-09-25T09:56:29.219Z,99688.09
2018-09-25T09:59:04.076Z,99693.00
2018-09-25T10:01:52.016Z,99689.47
2018-09-25T10:04:27.125Z,99688.34
2018-09-25T10:07:02.422Z,99690.92
2018-09-25T10:09:37.205Z,99696.56
2018-09-25T10:12:12.872Z,99699.02
2018-09-25T10:14:49.746Z,99697.52
2018-09-25T10:17:25.641Z,99694.44
2018-09-25T10:20:00.492Z,99693.52
2018-09-25T10:22:36.078Z,99693.85
2018-09-25T10:25:10.865Z,99700.89
2018-09-25T10:27:45.782Z,99694.86
2018-09-25T10:30:20.660Z,99696.44
2018-09-25T10:32:55.357Z,99690.86
2018-09-25T10:35:30.170Z,99691.44
2018-09-25T10:38:05.334Z,99695.95
2018-09-25T10:40:40.468Z,99689.13
2018-09-25T10:43:15.298Z,99692.49
2018-09-25T10:45:50.004Z,99691.13
2018-09-25T10:48:25.021Z,99692.44
2018-09-25T10:50:59.775Z,99692.77
2018-09-25T10:53:34.404Z,99697.08
2018-09-25T10:56:10.000Z,99701.91
2018-09-25T10:58:45.741Z,99696.58
2018-09-25T11:01:20.492Z,99699.03
2018-09-25T11:03:56.570Z,99698.43
2018-09-25T11:06:31.407Z,99691.33
2018-09-25T11:09:06.340Z,99692.45
2018-09-25T11:11:42.549Z,99694.54
2018-09-25T11:14:17.432Z,99695.94
2018-09-25T11:16:52.916Z,99690.60
2018-09-25T11:19:28.194Z,99687.69
2018-09-25T11:24:39.727Z,99681.05
2018-09-25T11:27:14.408Z,99684.79
2018-09-25T11:29:50.551Z,99681.05
2018-09-25T11:32:25.190Z,99685.51
2018-09-25T11:34:59.821Z,99685.51
2018-09-25T11:37:34.523Z,99685.00
2018-09-25T11:40:12.627Z,99682.13
2018-09-25T11:42:47.553Z,99682.13
2018-09-25T11:45:23.381Z,99688.09
2018-09-25T11:47:58.289Z,99682.49
2018-09-25T11:50:34.833Z,99676.17
2018-09-25T11:53:10.269Z,99679.48
2018-09-25T11:55:45.291Z,99672.84
2018-09-25T11:58:20.415Z,99660.70
2018-09-25T12:00:55.219Z,99656.11
2018-09-25T12:03:30.766Z,99654.75
2018-09-25T12:06:05.454Z,99652.38
2018-09-25T12:08:40.470Z,99657.48
2018-09-25T12:11:15.613Z,99668.39
2018-09-25T12:13:51.270Z,99675.38
2018-09-25T12:16:26.970Z,99689.53
2018-09-25T12:19:01.947Z,99690.53
2018-09-25T12:21:37.185Z,99688.30
2018-09-25T12:24:13.696Z,99677.04
2018-09-25T12:26:48.684Z,99668.14
2018-09-25T12:29:24.084Z,99662.64
2018-09-25T12:31:59.408Z,99665.69
2018-09-25T12:34:34.107Z,99665.69
2018-09-25T12:37:09.296Z,99655.35
2018-09-25T12:39:43.813Z,99647.67
2018-09-25T12:42:18.208Z,99651.91
2018-09-25T12:44:53.428Z,99657.00
2018-09-25T12:47:27.983Z,99655.64
2018-09-25T12:50:02.913Z,99655.78
2018-09-25T12:52:38.139Z,99656.78
2018-09-25T12:55:13.467Z,99639.16
2018-09-25T12:57:48.324Z,99628.19
2018-09-25T13:00:24.205Z,99630.73
2018-09-25T13:03:00.186Z,99621.61
2018-09-25T13:05:35.087Z,99618.81
2018-09-25T13:08:10.793Z,99620.42
2018-09-25T13:10:45.463Z,99615.56
2018-09-25T13:13:20.015Z,99611.19
2018-09-25T13:15:54.797Z,99611.89
2018-09-25T13:18:29.503Z,99613.80
2018-09-25T13:21:04.777Z,99603.91
2018-09-25T13:23:39.269Z,99597.97
2018-09-25T13:26:13.914Z,99597.87
2018-09-25T13:29:03.894Z,99586.93
2018-09-25T13:31:40.247Z,99579.96
2018-09-25T13:34:14.952Z,99584.22
2018-09-25T13:37:00.376Z,99580.64
2018-09-25T13:39:36.996Z,99588.95
2018-09-25T13:42:12.728Z,99579.84
2018-09-25T13:44:47.578Z,99581.51
2018-09-25T13:47:23.911Z,99570.03
2018-09-25T13:49:59.274Z,99574.06
2018-09-25T13:52:37.259Z,99571.25
2018-09-25T13:58:08.104Z,99564.81
2018-09-25T14:00:42.601Z,99563.19
2018-09-25T14:05:54.069Z,99561.55
2018-09-25T14:08:28.874Z,99561.33
2018-09-25T14:11:03.868Z,99554.33
2018-09-25T14:13:39.963Z,99554.33
2018-09-25T14:16:15.884Z,99550.75
2018-09-25T14:18:50.833Z,99547.86
2018-09-25T14:21:26.107Z,99548.36
2018-09-25T14:24:00.983Z,99550.08
2018-09-25T14:26:35.712Z,99544.27
2018-09-25T14:29:10.310Z,99541.23
2018-09-25T14:31:45.387Z,99540.36
2018-09-25T14:34:20.297Z,99536.97
2018-09-25T14:36:57.677Z,99544.14
2018-09-25T14:39:32.350Z,99539.55
2018-09-25T14:42:06.895Z,99541.14
2018-09-25T14:44:41.441Z,99534.20
2018-09-25T14:47:16.278Z,99534.70
2018-09-25T14:49:51.351Z,99538.50
2018-09-25T14:52:25.927Z,99523.00
2018-09-25T14:55:00.939Z,99512.98
2018-09-25T14:57:36.211Z,99516.56
2018-09-25T15:00:11.646Z,99516.42
2018-09-25T15:02:46.650Z,99511.38
2018-09-25T15:05:21.332Z,99512.34
2018-09-25T15:07:56.552Z,99511.73
2018-09-25T15:10:31.367Z,99508.52
2018-09-25T15:13:08.180Z,99509.12
2018-09-25T15:15:43.281Z,99505.53
2018-09-25T15:18:17.969Z,99495.29
2018-09-25T15:20:53.319Z,99502.09
2018-09-25T15:23:27.764Z,99503.45
2018-09-25T15:26:03.200Z,99498.68
2018-09-25T15:28:38.564Z,99495.96
2018-09-25T15:31:13.855Z,99493.88
2018-09-25T15:33:49.228Z,99495.38
2018-09-25T15:36:25.030Z,99498.23
2018-09-25T15:39:00.542Z,99507.04
2018-09-25T15:41:37.161Z,99503.31
2018-09-25T15:44:12.277Z,99485.44
2018-09-25T15:46:48.412Z,99486.36
2018-09-25T15:49:23.063Z,99487.72
2018-09-25T15:51:58.230Z,99485.49
2018-09-25T15:54:32.827Z,99483.64
2018-09-25T15:57:07.950Z,99483.86
2018-09-25T15:59:42.802Z,99478.14
2018-09-25T16:02:18.829Z,99476.33
2018-09-25T16:04:55.095Z,99478.10
2018-09-25T16:07:29.553Z,99485.02
2018-09-25T16:10:04.332Z,99474.85
2018-09-25T16:12:38.960Z,99474.22
2018-09-25T16:15:13.794Z,99478.13
2018-09-25T16:17:48.698Z,99479.84
2018-09-25T16:20:23.505Z,99481.92
2018-09-25T16:22:58.324Z,99485.01
2018-09-25T16:25:33.608Z,99483.51
2018-09-25T16:28:08.138Z,99481.50
2018-09-25T16:33:16.649Z,99484.22
2018-09-25T16:35:51.668Z,99490.16
2018-09-25T16:38:26.786Z,99493.88
2018-09-25T16:41:01.844Z,99499.96
2018-09-25T16:43:36.286Z,99493.94
2018-09-25T16:46:10.832Z,99495.30
2018-09-25T16:48:46.104Z,99499.38
2018-09-25T16:51:20.819Z,99497.97
2018-09-25T16:53:55.751Z,99495.74
2018-09-25T16:56:30.348Z,99496.24
2018-09-25T16:59:05.277Z,99495.02
2018-09-25T17:01:40.069Z,99502.95
2018-09-25T17:04:14.751Z,99505.84
2018-09-25T17:06:49.468Z,99508.20
2018-09-25T17:09:24.263Z,99500.18
2018-09-25T17:11:59.196Z,99501.31
2018-09-25T17:14:34.300Z,99506.63
2018-09-25T17:17:09.047Z,99505.77
2018-09-25T17:19:44.276Z,99505.77
2018-09-25T17:22:19.096Z,99511.56
2018-09-25T17:24:54.124Z,99517.42
2018-09-25T17:27:29.196Z,99520.14
2018-09-25T17:30:04.349Z,99516.64
2018-09-25T17:32:40.302Z,99513.06
2018-09-25T17:35:15.098Z,99515.28
2018-09-25T17:37:51.518Z,99512.56
2018-09-25T17:40:26.726Z,99519.50
2018-09-25T17:43:01.182Z,99517.42
2018-09-25T17:45:36.233Z,99519.01
2018-09-25T17:48:10.847Z,99516.01
2018-09-25T17:50:45.695Z,99518.95
2018-09-25T17:53:20.468Z,99525.22
2018-09-25T17:55:55.350Z,99522.50
2018-09-25T18:01:35.532Z,99530.17
2018-09-25T18:04:10.267Z,99533.06
2018-09-25T18:06:44.929Z,99523.03
2018-09-25T18:09:19.611Z,99528.81
2018-09-25T18:11:54.243Z,99525.76
2018-09-25T18:14:29.141Z,99524.17
2018-09-25T18:17:04.184Z,99530.53
2018-09-25T18:19:38.862Z,99527.31
2018-09-25T18:22:14.188Z,99524.45
2018-09-25T18:24:49.696Z,99527.81
2018-09-25T18:27:24.445Z,99521.73
2018-09-25T18:30:00.406Z,99520.37
2018-09-25T18:32:35.171Z,99528.53
2018-09-25T18:35:10.046Z,99524.81
2018-09-25T18:37:45.084Z,99522.23
2018-09-25T18:40:20.412Z,99528.89
2018-09-25T18:42:55.437Z,99538.28
2018-09-25T18:45:30.299Z,99531.98
2018-09-25T18:48:05.325Z,99535.20
2018-09-25T18:50:40.335Z,99529.39
2018-09-25T18:53:15.544Z,99536.20
2018-09-25T18:55:50.266Z,99541.14
2018-09-25T18:58:25.143Z,99538.55
2018-09-25T19:01:00.086Z,99536.92
2018-09-25T19:03:34.699Z,99535.42
2018-09-25T19:06:11.754Z,99530.34
2018-09-25T19:08:49.208Z,99526.59
2018-09-25T19:11:24.520Z,99524.90
2018-09-25T19:13:59.218Z,99527.62
2018-09-25T19:16:33.986Z,99535.42
2018-09-25T19:19:09.080Z,99529.48
2018-09-25T19:21:44.485Z,99534.06
2018-09-25T19:24:20.129Z,99528.26
2018-09-25T19:26:55.153Z,99520.23
2018-09-25T19:29:30.404Z,99522.81
2018-09-25T19:32:11.860Z,99521.45
2018-09-25T19:34:47.542Z,99521.50
2018-09-25T19:37:22.893Z,99522.37
2018-09-25T19:39:58.331Z,99531.03
2018-09-25T19:42:34.056Z,99532.75
2018-09-25T19:45:10.340Z,99530.29
2018-09-25T19:47:44.860Z,99539.05
2018-09-25T19:50:20.541Z,99547.22
2018-09-25T19:52:55.387Z,99551.20
2018-09-25T19:55:30.287Z,99527.81
2018-09-25T19:58:06.244Z,99528.98
2018-09-25T20:00:41.750Z,99531.53
2018-09-25T20:03:16.362Z,99525.95
2018-09-25T20:05:51.147Z,99524.20
2018-09-25T20:08:26.758Z,99516.91
2018-09-25T20:11:01.828Z,99508.73
2018-09-25T20:13:38.392Z,99502.20
2018-09-25T20:16:14.059Z,99493.05
2018-09-25T20:18:49.128Z,99486.15
2018-09-25T20:21:24.186Z,99486.45
2018-09-25T20:23:59.100Z,99487.50
2018-09-25T20:26:34.379Z,99483.84
2018-09-25T20:29:10.304Z,99497.47
2018-09-25T20:31:46.106Z,99501.95
2018-09-25T20:34:21.065Z,99504.53
2018-09-25T20:36:56.559Z,99509.34
2018-09-25T20:39:31.223Z,99503.89
2018-09-25T20:42:06.592Z,99511.06
2018-09-25T20:44:41.467Z,99506.48
2018-09-25T20:47:16.445Z,99497.45
2018-09-25T20:49:51.456Z,99498.30
2018-09-25T20:52:26.003Z,99496.09
2018-09-25T20:55:01.213Z,99488.78
2018-09-25T20:57:36.171Z,99480.94
2018-09-25T21:00:11.525Z,99490.64
2018-09-25T21:02:46.968Z,99485.19
2018-09-25T21:05:21.786Z,99482.11
2018-09-25T21:07:56.279Z,99474.45
2018-09-25T21:10:31.674Z,99470.72
2018-09-25T21:13:06.531Z,99471.22
2018-09-25T21:15:41.204Z,99468.28
2018-09-25T21:18:17.043Z,99468.88
2018-09-25T21:20:52.247Z,99465.30
2018-09-25T21:23:28.099Z,99455.41
2018-09-25T21:26:03.191Z,99453.91
2018-09-25T21:28:37.906Z,99471.59
2018-09-25T21:31:12.868Z,99471.78
2018-09-25T21:33:47.364Z,99479.59
2018-09-25T21:36:22.351Z,99476.39
2018-09-25T21:38:57.509Z,99475.13
2018-09-25T21:41:32.095Z,99477.63
2018-09-25T21:44:07.289Z,99483.56
2018-09-25T21:46:42.032Z,99480.34
2018-09-25T21:49:16.575Z,99475.90
2018-09-25T21:51:51.754Z,99474.54
2018-09-25T21:54:26.115Z,99469.27
2018-09-25T21:57:01.777Z,99459.66
2018-09-25T21:59:36.351Z,99445.61
2018-09-25T22:02:11.384Z,99436.59
2018-09-25T22:04:46.199Z,99434.37
2018-09-25T22:07:21.318Z,99433.28
2018-09-25T22:09:56.310Z,99430.20
2018-09-25T22:12:31.149Z,99417.60
2018-09-25T22:15:06.082Z,99397.33
2018-09-25T22:17:40.752Z,99396.51
2018-09-25T22:20:15.596Z,99380.32
2018-09-25T22:22:50.203Z,99377.02
2018-09-25T22:25:25.358Z,99375.44
2018-09-25T22:27:59.865Z,99379.02
2018-09-25T22:30:34.492Z,99380.70
2018-09-25T22:33:09.431Z,99387.14
2018-09-25T22:35:44.124Z,99376.90
2018-09-25T22:38:18.973Z,99373.96
2018-09-25T22:40:53.779Z,99373.60
2018-09-25T22:43:28.344Z,99377.86
2018-09-25T22:46:03.049Z,99379.85
2018-09-25T22:48:37.740Z,99379.13
2018-09-25T22:51:12.693Z,99384.21
2018-09-25T22:53:47.372Z,99384.85
2018-09-25T22:56:21.989Z,99374.28
2018-09-25T22:58:56.842Z,99373.92
2018-09-25T23:01:31.724Z,99376.42
2018-09-25T23:04:06.631Z,99375.84
2018-09-25T23:06:41.303Z,99370.90
2018-09-25T23:09:15.832Z,99364.63
2018-09-25T23:11:50.715Z,99362.91
2018-09-25T23:14:25.403Z,99350.95
2018-09-25T23:17:00.180Z,99348.02
2018-09-25T23:19:35.392Z,99338.14
2018-09-25T23:22:10.296Z,99342.39
2018-09-25T23:24:45.454Z,99338.09
2018-09-25T23:27:19.957Z,99340.09
2018-09-25T23:29:54.493Z,99340.22
2018-09-25T23:32:29.276Z,99341.22
2018-09-25T23:35:04.143Z,99343.58
2018-09-25T23:37:38.859Z,99342.03
2018-09-25T23:41:18.524Z,99346.61
2018-09-25T23:43:55.928Z,99335.16
2018-09-25T23:46:45.369Z,99346.84
2018-09-25T23:49:26.652Z,99349.88
2018-09-25T23:52:01.959Z,99355.98
2018-09-25T23:54:37.483Z,99355.48
2018-09-25T23:57:15.805Z,99357.12
2018-09-25T23:59:57.489Z,99363.20
